sensor_id;sensor_type;location;lat;lon;timestamp;temperature;humidity
10247;DHT22;5168;47.854;7.944;2022-09-12T00:01:48;11.40;99.90
10247;DHT22;5168;47.854;7.944;2022-09-12T00:04:14;11.30;99.90
10247;DHT22;5168;47.854;7.944;2022-09-12T00:06:40;11.20;99.90
10247;DHT22;5168;47.854;7.944;2022-09-12T00:09:09;10.20;99.90
10247;DHT22;5168;47.854;7.944;2022-09-12T00:11:36;10.70;99.90
10247;DHT22;5168;47.854;7.944;2022-09-12T00:14:03;10.80;99.90
10247;DHT22;5168;47.854;7.944;2022-09-12T00:16:30;11.00;99.90
10247;DHT22;5168;47.854;7.944;2022-09-12T00:21:22;10.80;99.90
10247;DHT22;5168;47.854;7.944;2022-09-12T00:23:48;10.30;99.90
10247;DHT22;5168;47.854;7.944;2022-09-12T00:26:15;10.10;99.90
10247;DHT22;5168;47.854;7.944;2022-09-12T00:28:41;10.70;99.90
10247;DHT22;5168;47.854;7.944;2022-09-12T00:31:10;10.20;99.90
10247;DHT22;5168;47.854;7.944;2022-09-12T00:36:05;10.20;99.90
10247;DHT22;5168;47.854;7.944;2022-09-12T00:40:57;10.30;99.90
10247;DHT22;5168;47.854;7.944;2022-09-12T00:45:55;10.50;99.90
10247;DHT22;5168;47.854;7.944;2022-09-12T00:48:32;10.90;99.90
10247;DHT22;5168;47.854;7.944;2022-09-12T00:50:59;10.20;99.90
10247;DHT22;5168;47.854;7.944;2022-09-12T00:55:53;10.30;99.90
10247;DHT22;5168;47.854;7.944;2022-09-12T00:58:32;10.00;99.90
10247;DHT22;5168;47.854;7.944;2022-09-12T01:06:08;10.10;99.90
10247;DHT22;5168;47.854;7.944;2022-09-12T01:11:04;10.40;99.90
10247;DHT22;5168;47.854;7.944;2022-09-12T01:13:31;9.70;99.90
10247;DHT22;5168;47.854;7.944;2022-09-12T01:18:50;10.30;99.90
10247;DHT22;5168;47.854;7.944;2022-09-12T01:21:35;10.10;99.90
10247;DHT22;5168;47.854;7.944;2022-09-12T01:24:39;10.40;99.90
10247;DHT22;5168;47.854;7.944;2022-09-12T01:33:02;9.70;99.90
10247;DHT22;5168;47.854;7.944;2022-09-12T01:36:10;10.40;99.90
10247;DHT22;5168;47.854;7.944;2022-09-12T01:38:41;10.10;99.90
10247;DHT22;5168;47.854;7.944;2022-09-12T01:41:25;10.00;99.90
10247;DHT22;5168;47.854;7.944;2022-09-12T01:44:03;10.00;99.90
10247;DHT22;5168;47.854;7.944;2022-09-12T01:49:09;10.00;99.90
10247;DHT22;5168;47.854;7.944;2022-09-12T01:52:09;9.80;99.90
10247;DHT22;5168;47.854;7.944;2022-09-12T01:54:39;9.40;99.90
10247;DHT22;5168;47.854;7.944;2022-09-12T01:57:28;9.30;99.90
10247;DHT22;5168;47.854;7.944;2022-09-12T01:59:59;9.90;99.90
10247;DHT22;5168;47.854;7.944;2022-09-12T02:02:32;10.20;99.90
10247;DHT22;5168;47.854;7.944;2022-09-12T02:05:09;9.80;99.90
10247;DHT22;5168;47.854;7.944;2022-09-12T02:13:03;10.30;99.90
10247;DHT22;5168;47.854;7.944;2022-09-12T02:15:37;10.10;99.90
10247;DHT22;5168;47.854;7.944;2022-09-12T02:18:05;9.70;99.90
10247;DHT22;5168;47.854;7.944;2022-09-12T02:20:36;9.70;99.90
10247;DHT22;5168;47.854;7.944;2022-09-12T02:23:05;10.00;99.90
10247;DHT22;5168;47.854;7.944;2022-09-12T02:25:33;10.00;99.90
10247;DHT22;5168;47.854;7.944;2022-09-12T02:28:07;9.60;99.90
10247;DHT22;5168;47.854;7.944;2022-09-12T02:30:39;9.40;99.90
10247;DHT22;5168;47.854;7.944;2022-09-12T02:33:26;9.90;99.90
10247;DHT22;5168;47.854;7.944;2022-09-12T02:36:24;10.10;99.90
10247;DHT22;5168;47.854;7.944;2022-09-12T02:38:51;9.50;99.90
10247;DHT22;5168;47.854;7.944;2022-09-12T02:41:19;10.10;99.90
10247;DHT22;5168;47.854;7.944;2022-09-12T02:43:46;9.80;99.90
10247;DHT22;5168;47.854;7.944;2022-09-12T02:46:18;9.90;99.90
10247;DHT22;5168;47.854;7.944;2022-09-12T02:48:46;9.90;99.90
10247;DHT22;5168;47.854;7.944;2022-09-12T02:53:38;9.70;99.90
10247;DHT22;5168;47.854;7.944;2022-09-12T02:56:07;9.30;99.90
10247;DHT22;5168;47.854;7.944;2022-09-12T02:58:33;10.10;99.90
10247;DHT22;5168;47.854;7.944;2022-09-12T03:03:58;10.00;99.90
10247;DHT22;5168;47.854;7.944;2022-09-12T03:06:36;9.40;99.90
10247;DHT22;5168;47.854;7.944;2022-09-12T03:12:07;9.60;99.90
10247;DHT22;5168;47.854;7.944;2022-09-12T03:20:13;9.60;99.90
10247;DHT22;5168;47.854;7.944;2022-09-12T03:22:56;9.60;99.90
10247;DHT22;5168;47.854;7.944;2022-09-12T03:25:45;9.20;99.90
10247;DHT22;5168;47.854;7.944;2022-09-12T03:28:16;9.80;99.90
10247;DHT22;5168;47.854;7.944;2022-09-12T03:30:47;9.10;99.90
10247;DHT22;5168;47.854;7.944;2022-09-12T03:33:18;9.60;99.90
10247;DHT22;5168;47.854;7.944;2022-09-12T03:35:45;9.30;99.90
10247;DHT22;5168;47.854;7.944;2022-09-12T03:40:38;9.90;99.90
10247;DHT22;5168;47.854;7.944;2022-09-12T03:43:05;9.40;99.90
10247;DHT22;5168;47.854;7.944;2022-09-12T03:45:31;9.60;99.90
10247;DHT22;5168;47.854;7.944;2022-09-12T03:47:56;9.00;99.90
10247;DHT22;5168;47.854;7.944;2022-09-12T03:50:22;9.80;99.90
10247;DHT22;5168;47.854;7.944;2022-09-12T03:52:48;9.10;99.90
10247;DHT22;5168;47.854;7.944;2022-09-12T03:57:39;9.10;99.90
10247;DHT22;5168;47.854;7.944;2022-09-12T04:00:06;9.40;99.90
10247;DHT22;5168;47.854;7.944;2022-09-12T04:02:33;9.00;99.90
10247;DHT22;5168;47.854;7.944;2022-09-12T04:07:25;9.00;99.90
10247;DHT22;5168;47.854;7.944;2022-09-12T04:12:18;8.80;99.90
10247;DHT22;5168;47.854;7.944;2022-09-12T04:17:09;9.50;99.90
10247;DHT22;5168;47.854;7.944;2022-09-12T04:22:01;9.60;99.90
10247;DHT22;5168;47.854;7.944;2022-09-12T04:24:26;9.50;99.90
10247;DHT22;5168;47.854;7.944;2022-09-12T04:26:52;9.60;99.90
10247;DHT22;5168;47.854;7.944;2022-09-12T04:34:10;9.60;99.90
10247;DHT22;5168;47.854;7.944;2022-09-12T04:36:35;8.70;99.90
10247;DHT22;5168;47.854;7.944;2022-09-12T04:39:01;9.30;99.90
10247;DHT22;5168;47.854;7.944;2022-09-12T04:41:33;8.80;99.90
10247;DHT22;5168;47.854;7.944;2022-09-12T04:44:02;8.60;99.90
10247;DHT22;5168;47.854;7.944;2022-09-12T04:46:30;9.60;99.90
10247;DHT22;5168;47.854;7.944;2022-09-12T04:51:34;9.10;99.90
10247;DHT22;5168;47.854;7.944;2022-09-12T04:54:20;9.10;99.90
10247;DHT22;5168;47.854;7.944;2022-09-12T04:56:48;9.60;99.90
10247;DHT22;5168;47.854;7.944;2022-09-12T04:59:15;9.10;99.90
10247;DHT22;5168;47.854;7.944;2022-09-12T05:01:41;8.80;99.90
10247;DHT22;5168;47.854;7.944;2022-09-12T05:04:09;9.30;99.90
10247;DHT22;5168;47.854;7.944;2022-09-12T05:06:36;8.50;99.90
10247;DHT22;5168;47.854;7.944;2022-09-12T05:09:04;9.20;99.90
10247;DHT22;5168;47.854;7.944;2022-09-12T05:11:32;9.10;99.90
10247;DHT22;5168;47.854;7.944;2022-09-12T05:16:25;9.50;99.90
10247;DHT22;5168;47.854;7.944;2022-09-12T05:18:51;9.50;99.90
10247;DHT22;5168;47.854;7.944;2022-09-12T05:21:19;9.00;99.90
10247;DHT22;5168;47.854;7.944;2022-09-12T05:23:45;8.90;99.90
10247;DHT22;5168;47.854;7.944;2022-09-12T05:26:15;9.20;99.90
10247;DHT22;5168;47.854;7.944;2022-09-12T05:28:41;9.00;99.90
10247;DHT22;5168;47.854;7.944;2022-09-12T05:31:11;9.30;99.90
10247;DHT22;5168;47.854;7.944;2022-09-12T05:33:38;9.50;99.90
10247;DHT22;5168;47.854;7.944;2022-09-12T05:36:06;9.80;99.90
10247;DHT22;5168;47.854;7.944;2022-09-12T05:38:35;9.50;99.90
10247;DHT22;5168;47.854;7.944;2022-09-12T05:41:09;9.60;99.90
10247;DHT22;5168;47.854;7.944;2022-09-12T05:43:37;9.30;99.90
10247;DHT22;5168;47.854;7.944;2022-09-12T05:46:05;9.20;99.90
10247;DHT22;5168;47.854;7.944;2022-09-12T05:48:33;9.10;99.90
10247;DHT22;5168;47.854;7.944;2022-09-12T05:51:11;9.60;99.90
10247;DHT22;5168;47.854;7.944;2022-09-12T05:53:38;9.80;99.90
10247;DHT22;5168;47.854;7.944;2022-09-12T05:56:12;9.90;99.90
10247;DHT22;5168;47.854;7.944;2022-09-12T05:58:40;9.50;99.90
10247;DHT22;5168;47.854;7.944;2022-09-12T06:01:11;9.50;99.90
10247;DHT22;5168;47.854;7.944;2022-09-12T06:03:48;9.30;99.90
10247;DHT22;5168;47.854;7.944;2022-09-12T06:06:16;9.80;99.90
10247;DHT22;5168;47.854;7.944;2022-09-12T06:08:44;9.90;99.90
10247;DHT22;5168;47.854;7.944;2022-09-12T06:11:15;10.60;99.90
10247;DHT22;5168;47.854;7.944;2022-09-12T06:13:42;11.00;99.90
10247;DHT22;5168;47.854;7.944;2022-09-12T06:16:16;10.90;99.90
10247;DHT22;5168;47.854;7.944;2022-09-12T06:18:46;11.80;99.90
10247;DHT22;5168;47.854;7.944;2022-09-12T06:21:12;12.50;99.90
10247;DHT22;5168;47.854;7.944;2022-09-12T06:23:39;12.20;99.90
10247;DHT22;5168;47.854;7.944;2022-09-12T06:26:06;12.80;99.90
10247;DHT22;5168;47.854;7.944;2022-09-12T06:28:35;12.80;99.90
10247;DHT22;5168;47.854;7.944;2022-09-12T06:31:05;13.40;99.90
10247;DHT22;5168;47.854;7.944;2022-09-12T06:33:33;13.70;99.90
10247;DHT22;5168;47.854;7.944;2022-09-12T06:36:07;13.50;99.90
10247;DHT22;5168;47.854;7.944;2022-09-12T06:38:33;14.50;99.90
10247;DHT22;5168;47.854;7.944;2022-09-12T06:41:01;14.80;99.90
10247;DHT22;5168;47.854;7.944;2022-09-12T06:43:28;14.70;99.90
10247;DHT22;5168;47.854;7.944;2022-09-12T06:45:54;15.10;99.90
10247;DHT22;5168;47.854;7.944;2022-09-12T06:48:19;14.40;99.90
10247;DHT22;5168;47.854;7.944;2022-09-12T06:50:58;15.20;99.90
10247;DHT22;5168;47.854;7.944;2022-09-12T06:53:25;15.60;99.90
10247;DHT22;5168;47.854;7.944;2022-09-12T06:56:15;15.40;99.90
10247;DHT22;5168;47.854;7.944;2022-09-12T06:58:41;15.30;99.90
10247;DHT22;5168;47.854;7.944;2022-09-12T07:01:22;16.20;99.90
10247;DHT22;5168;47.854;7.944;2022-09-12T07:03:54;16.40;99.90
10247;DHT22;5168;47.854;7.944;2022-09-12T07:06:22;16.10;99.90
10247;DHT22;5168;47.854;7.944;2022-09-12T07:11:22;16.80;99.90
10247;DHT22;5168;47.854;7.944;2022-09-12T07:13:51;17.40;99.90
10247;DHT22;5168;47.854;7.944;2022-09-12T07:16:17;17.60;99.90
10247;DHT22;5168;47.854;7.944;2022-09-12T07:18:43;17.70;99.90
10247;DHT22;5168;47.854;7.944;2022-09-12T07:21:13;17.90;99.90
10247;DHT22;5168;47.854;7.944;2022-09-12T07:23:39;17.70;99.90
10247;DHT22;5168;47.854;7.944;2022-09-12T07:28:33;18.10;99.90
10247;DHT22;5168;47.854;7.944;2022-09-12T07:31:11;18.10;99.90
10247;DHT22;5168;47.854;7.944;2022-09-12T07:33:38;18.40;99.90
10247;DHT22;5168;47.854;7.944;2022-09-12T07:36:06;17.80;99.90
10247;DHT22;5168;47.854;7.944;2022-09-12T07:38:33;18.00;99.90
10247;DHT22;5168;47.854;7.944;2022-09-12T07:40:58;18.60;99.90
10247;DHT22;5168;47.854;7.944;2022-09-12T07:43:25;18.30;99.90
10247;DHT22;5168;47.854;7.944;2022-09-12T07:45:57;18.40;99.90
10247;DHT22;5168;47.854;7.944;2022-09-12T07:50:59;18.40;99.90
10247;DHT22;5168;47.854;7.944;2022-09-12T07:53:29;19.30;99.90
10247;DHT22;5168;47.854;7.944;2022-09-12T07:55:55;18.30;99.90
10247;DHT22;5168;47.854;7.944;2022-09-12T07:58:22;19.40;99.90
10247;DHT22;5168;47.854;7.944;2022-09-12T08:00:47;19.90;99.90
10247;DHT22;5168;47.854;7.944;2022-09-12T08:03:13;20.00;99.90
10247;DHT22;5168;47.854;7.944;2022-09-12T08:08:05;20.30;99.90
10247;DHT22;5168;47.854;7.944;2022-09-12T08:10:30;20.30;99.90
10247;DHT22;5168;47.854;7.944;2022-09-12T08:12:57;19.70;99.90
10247;DHT22;5168;47.854;7.944;2022-09-12T08:15:23;19.90;99.90
10247;DHT22;5168;47.854;7.944;2022-09-12T08:17:49;20.50;99.90
10247;DHT22;5168;47.854;7.944;2022-09-12T08:20:14;20.00;99.90
10247;DHT22;5168;47.854;7.944;2022-09-12T08:22:41;20.10;99.90
10247;DHT22;5168;47.854;7.944;2022-09-12T08:25:07;20.40;99.90
10247;DHT22;5168;47.854;7.944;2022-09-12T08:27:33;20.70;99.90
10247;DHT22;5168;47.854;7.944;2022-09-12T08:39:43;20.40;99.90
10247;DHT22;5168;47.854;7.944;2022-09-12T08:42:09;20.90;99.90
10247;DHT22;5168;47.854;7.944;2022-09-12T08:59:44;21.40;99.90
10247;DHT22;5168;47.854;7.944;2022-09-12T09:16:56;22.10;99.90
10247;DHT22;5168;47.854;7.944;2022-09-12T09:19:30;22.30;99.90
10247;DHT22;5168;47.854;7.944;2022-09-12T09:22:03;21.90;99.90
10247;DHT22;5168;47.854;7.944;2022-09-12T09:24:41;22.50;99.90
10247;DHT22;5168;47.854;7.944;2022-09-12T09:27:28;22.00;99.90
10247;DHT22;5168;47.854;7.944;2022-09-12T09:29:56;22.30;99.90
10247;DHT22;5168;47.854;7.944;2022-09-12T09:32:27;22.60;99.90
10247;DHT22;5168;47.854;7.944;2022-09-12T09:34:54;22.70;99.90
10247;DHT22;5168;47.854;7.944;2022-09-12T09:37:28;23.80;99.90
10247;DHT22;5168;47.854;7.944;2022-09-12T09:40:25;23.00;99.90
10247;DHT22;5168;47.854;7.944;2022-09-12T09:45:39;22.80;99.90
10247;DHT22;5168;47.854;7.944;2022-09-12T09:51:11;23.10;99.90
10247;DHT22;5168;47.854;7.944;2022-09-12T09:53:51;23.30;99.70
10247;DHT22;5168;47.854;7.944;2022-09-12T09:56:32;23.70;99.90
10247;DHT22;5168;47.854;7.944;2022-09-12T09:59:17;24.30;99.90
10247;DHT22;5168;47.854;7.944;2022-09-12T10:01:55;23.90;99.90
10247;DHT22;5168;47.854;7.944;2022-09-12T10:04:35;23.70;99.90
10247;DHT22;5168;47.854;7.944;2022-09-12T10:07:04;23.90;96.30
10247;DHT22;5168;47.854;7.944;2022-09-12T10:09:32;24.20;99.90
10247;DHT22;5168;47.854;7.944;2022-09-12T10:11:58;24.80;92.70
10247;DHT22;5168;47.854;7.944;2022-09-12T10:16:57;25.50;99.90
10247;DHT22;5168;47.854;7.944;2022-09-12T10:19:33;25.50;92.40
10247;DHT22;5168;47.854;7.944;2022-09-12T10:22:01;25.90;99.20
10247;DHT22;5168;47.854;7.944;2022-09-12T10:24:40;26.00;90.60
10247;DHT22;5168;47.854;7.944;2022-09-12T10:27:13;26.20;93.80
10247;DHT22;5168;47.854;7.944;2022-09-12T10:30:14;26.40;96.30
10247;DHT22;5168;47.854;7.944;2022-09-12T10:32:43;26.50;95.80
10247;DHT22;5168;47.854;7.944;2022-09-12T10:35:49;26.40;80.80
10247;DHT22;5168;47.854;7.944;2022-09-12T10:38:28;26.50;94.50
10247;DHT22;5168;47.854;7.944;2022-09-12T10:41:09;26.60;95.10
10247;DHT22;5168;47.854;7.944;2022-09-12T10:43:37;27.30;79.90
10247;DHT22;5168;47.854;7.944;2022-09-12T10:46:22;27.10;80.50
10247;DHT22;5168;47.854;7.944;2022-09-12T10:51:51;27.30;92.20
10247;DHT22;5168;47.854;7.944;2022-09-12T10:54:22;27.20;77.00
10247;DHT22;5168;47.854;7.944;2022-09-12T10:59:53;27.20;91.00
10247;DHT22;5168;47.854;7.944;2022-09-12T11:02:56;27.50;81.10
10247;DHT22;5168;47.854;7.944;2022-09-12T11:05:36;27.10;71.60
10247;DHT22;5168;47.854;7.944;2022-09-12T11:08:16;27.20;89.90
10247;DHT22;5168;47.854;7.944;2022-09-12T11:10:58;27.90;74.60
10247;DHT22;5168;47.854;7.944;2022-09-12T11:27:11;28.20;82.60
10247;DHT22;5168;47.854;7.944;2022-09-12T11:30:00;28.60;80.50
10247;DHT22;5168;47.854;7.944;2022-09-12T11:32:51;28.00;65.10
10247;DHT22;5168;47.854;7.944;2022-09-12T11:35:28;27.90;82.00
10247;DHT22;5168;47.854;7.944;2022-09-12T11:40:55;28.20;72.50
10247;DHT22;5168;47.854;7.944;2022-09-12T11:45:58;28.40;81.50
10247;DHT22;5168;47.854;7.944;2022-09-12T11:50:52;28.50;62.50
10247;DHT22;5168;47.854;7.944;2022-09-12T11:55:55;28.80;81.70
10247;DHT22;5168;47.854;7.944;2022-09-12T11:58:25;28.70;78.00
10247;DHT22;5168;47.854;7.944;2022-09-12T12:01:07;28.70;80.80
10247;DHT22;5168;47.854;7.944;2022-09-12T12:03:45;28.90;80.10
10247;DHT22;5168;47.854;7.944;2022-09-12T12:06:18;29.00;78.60
10247;DHT22;5168;47.854;7.944;2022-09-12T12:08:46;29.00;79.60
10247;DHT22;5168;47.854;7.944;2022-09-12T12:11:32;28.80;79.00
10247;DHT22;5168;47.854;7.944;2022-09-12T12:14:06;28.70;78.50
10247;DHT22;5168;47.854;7.944;2022-09-12T12:16:37;28.90;77.60
10247;DHT22;5168;47.854;7.944;2022-09-12T12:21:51;28.60;81.20
10247;DHT22;5168;47.854;7.944;2022-09-12T12:24:25;28.60;83.60
10247;DHT22;5168;47.854;7.944;2022-09-12T12:26:56;28.70;81.70
10247;DHT22;5168;47.854;7.944;2022-09-12T12:34:35;28.30;80.70
10247;DHT22;5168;47.854;7.944;2022-09-12T12:40:21;28.70;82.50
10247;DHT22;5168;47.854;7.944;2022-09-12T12:47:52;28.50;82.10
10247;DHT22;5168;47.854;7.944;2022-09-12T12:52:58;28.40;61.90
10247;DHT22;5168;47.854;7.944;2022-09-12T12:55:37;28.50;81.30
10247;DHT22;5168;47.854;7.944;2022-09-12T12:58:32;28.50;80.70
10247;DHT22;5168;47.854;7.944;2022-09-12T13:01:20;28.30;79.30
10247;DHT22;5168;47.854;7.944;2022-09-12T13:04:00;28.40;82.70
10247;DHT22;5168;47.854;7.944;2022-09-12T13:06:34;28.50;78.60
10247;DHT22;5168;47.854;7.944;2022-09-12T13:09:15;28.50;78.40
10247;DHT22;5168;47.854;7.944;2022-09-12T13:11:43;28.50;83.10
10247;DHT22;5168;47.854;7.944;2022-09-12T13:17:38;28.40;79.70
10247;DHT22;5168;47.854;7.944;2022-09-12T13:20:15;28.40;60.70
10247;DHT22;5168;47.854;7.944;2022-09-12T13:22:47;28.30;79.50
10247;DHT22;5168;47.854;7.944;2022-09-12T13:25:30;28.30;58.20
10247;DHT22;5168;47.854;7.944;2022-09-12T13:30:44;27.80;72.30
10247;DHT22;5168;47.854;7.944;2022-09-12T13:46:15;27.50;60.20
10247;DHT22;5168;47.854;7.944;2022-09-12T13:48:42;27.30;83.50
10247;DHT22;5168;47.854;7.944;2022-09-12T13:51:22;27.10;84.20
10247;DHT22;5168;47.854;7.944;2022-09-12T13:53:49;27.00;87.60
10247;DHT22;5168;47.854;7.944;2022-09-12T13:56:19;26.70;64.20
10247;DHT22;5168;47.854;7.944;2022-09-12T13:58:52;27.00;89.10
10247;DHT22;5168;47.854;7.944;2022-09-12T14:01:20;27.00;89.00
10247;DHT22;5168;47.854;7.944;2022-09-12T14:03:54;26.40;87.10
10247;DHT22;5168;47.854;7.944;2022-09-12T14:09:29;26.50;63.80
10247;DHT22;5168;47.854;7.944;2022-09-12T14:11:56;26.00;87.80
10247;DHT22;5168;47.854;7.944;2022-09-12T14:14:35;26.00;66.00
10247;DHT22;5168;47.854;7.944;2022-09-12T14:17:24;25.80;88.00
10247;DHT22;5168;47.854;7.944;2022-09-12T14:19:54;25.90;89.10
10247;DHT22;5168;47.854;7.944;2022-09-12T14:22:24;25.80;82.60
10247;DHT22;5168;47.854;7.944;2022-09-12T14:24:52;25.40;89.40
10247;DHT22;5168;47.854;7.944;2022-09-12T14:27:23;25.10;90.50
10247;DHT22;5168;47.854;7.944;2022-09-12T14:32:27;25.10;91.20
10247;DHT22;5168;47.854;7.944;2022-09-12T14:37:37;24.70;68.40
10247;DHT22;5168;47.854;7.944;2022-09-12T14:40:19;24.70;91.70
10247;DHT22;5168;47.854;7.944;2022-09-12T14:42:45;24.10;84.10
10247;DHT22;5168;47.854;7.944;2022-09-12T14:45:17;24.10;92.80
10247;DHT22;5168;47.854;7.944;2022-09-12T14:47:49;23.80;91.60
10247;DHT22;5168;47.854;7.944;2022-09-12T14:50:17;23.70;91.00
10247;DHT22;5168;47.854;7.944;2022-09-12T14:55:27;23.50;93.30
10247;DHT22;5168;47.854;7.944;2022-09-12T15:00:54;23.00;84.00
10247;DHT22;5168;47.854;7.944;2022-09-12T15:03:26;22.30;93.70
10247;DHT22;5168;47.854;7.944;2022-09-12T15:05:52;22.20;79.30
10247;DHT22;5168;47.854;7.944;2022-09-12T15:08:17;22.60;95.40
10247;DHT22;5168;47.854;7.944;2022-09-12T15:10:43;21.90;95.10
10247;DHT22;5168;47.854;7.944;2022-09-12T15:13:13;22.10;95.90
10247;DHT22;5168;47.854;7.944;2022-09-12T15:16:01;21.90;94.20
10247;DHT22;5168;47.854;7.944;2022-09-12T15:18:27;21.80;95.90
10247;DHT22;5168;47.854;7.944;2022-09-12T15:20:59;21.90;89.20
10247;DHT22;5168;47.854;7.944;2022-09-12T15:23:36;21.30;95.60
10247;DHT22;5168;47.854;7.944;2022-09-12T15:26:05;21.40;95.40
10247;DHT22;5168;47.854;7.944;2022-09-12T15:28:31;21.20;96.80
10247;DHT22;5168;47.854;7.944;2022-09-12T15:36:17;21.70;97.20
10247;DHT22;5168;47.854;7.944;2022-09-12T15:38:44;21.00;97.70
10247;DHT22;5168;47.854;7.944;2022-09-12T15:41:12;20.90;95.20
10247;DHT22;5168;47.854;7.944;2022-09-12T15:43:39;20.70;96.10
10247;DHT22;5168;47.854;7.944;2022-09-12T15:46:04;21.30;89.30
10247;DHT22;5168;47.854;7.944;2022-09-12T15:48:31;21.60;93.40
10247;DHT22;5168;47.854;7.944;2022-09-12T15:53:26;20.70;96.50
10247;DHT22;5168;47.854;7.944;2022-09-12T15:55:52;20.90;96.30
10247;DHT22;5168;47.854;7.944;2022-09-12T15:58:17;21.10;96.30
10247;DHT22;5168;47.854;7.944;2022-09-12T16:03:24;21.00;78.10
10247;DHT22;5168;47.854;7.944;2022-09-12T16:05:56;20.50;95.70
10247;DHT22;5168;47.854;7.944;2022-09-12T16:08:22;21.00;79.00
10247;DHT22;5168;47.854;7.944;2022-09-12T16:10:52;20.90;96.00
10247;DHT22;5168;47.854;7.944;2022-09-12T16:13:18;20.70;95.10
10247;DHT22;5168;47.854;7.944;2022-09-12T16:20:38;21.20;96.70
10247;DHT22;5168;47.854;7.944;2022-09-12T16:23:04;20.30;90.00
10247;DHT22;5168;47.854;7.944;2022-09-12T16:25:30;20.80;96.30
10247;DHT22;5168;47.854;7.944;2022-09-12T16:27:56;20.00;94.30
10247;DHT22;5168;47.854;7.944;2022-09-12T16:30:21;19.90;90.30
10247;DHT22;5168;47.854;7.944;2022-09-12T16:37:39;20.40;96.60
10247;DHT22;5168;47.854;7.944;2022-09-12T16:40:05;20.40;96.80
10247;DHT22;5168;47.854;7.944;2022-09-12T16:42:31;19.50;96.60
10247;DHT22;5168;47.854;7.944;2022-09-12T16:47:22;19.80;97.00
10247;DHT22;5168;47.854;7.944;2022-09-12T16:54:42;19.00;96.50
10247;DHT22;5168;47.854;7.944;2022-09-12T17:11:46;19.10;94.00
10247;DHT22;5168;47.854;7.944;2022-09-12T17:14:12;18.90;84.30
10247;DHT22;5168;47.854;7.944;2022-09-12T17:16:43;19.30;90.70
10247;DHT22;5168;47.854;7.944;2022-09-12T17:19:21;18.30;99.60
10247;DHT22;5168;47.854;7.944;2022-09-12T17:24:17;18.50;89.10
10247;DHT22;5168;47.854;7.944;2022-09-12T17:29:12;18.20;89.20
10247;DHT22;5168;47.854;7.944;2022-09-12T17:36:32;17.90;99.20
10247;DHT22;5168;47.854;7.944;2022-09-12T17:38:59;17.60;99.90
10247;DHT22;5168;47.854;7.944;2022-09-12T17:41:27;17.50;90.40
10247;DHT22;5168;47.854;7.944;2022-09-12T17:43:55;17.10;99.90
10247;DHT22;5168;47.854;7.944;2022-09-12T17:46:24;17.60;99.90
10247;DHT22;5168;47.854;7.944;2022-09-12T17:48:54;17.30;90.10
10247;DHT22;5168;47.854;7.944;2022-09-12T17:51:21;17.80;98.30
10247;DHT22;5168;47.854;7.944;2022-09-12T17:54:16;17.40;99.90
10247;DHT22;5168;47.854;7.944;2022-09-12T17:56:41;17.20;91.10
10247;DHT22;5168;47.854;7.944;2022-09-12T17:59:09;17.00;90.90
10247;DHT22;5168;47.854;7.944;2022-09-12T18:01:37;17.10;99.90
10247;DHT22;5168;47.854;7.944;2022-09-12T18:06:47;16.90;97.10
10247;DHT22;5168;47.854;7.944;2022-09-12T18:09:20;16.70;91.10
10247;DHT22;5168;47.854;7.944;2022-09-12T18:11:47;16.50;99.90
10247;DHT22;5168;47.854;7.944;2022-09-12T18:14:13;16.60;99.90
10247;DHT22;5168;47.854;7.944;2022-09-12T18:16:39;16.90;99.90
10247;DHT22;5168;47.854;7.944;2022-09-12T18:19:05;16.50;99.90
10247;DHT22;5168;47.854;7.944;2022-09-12T18:23:57;15.70;99.00
10247;DHT22;5168;47.854;7.944;2022-09-12T18:26:24;15.90;99.90
10247;DHT22;5168;47.854;7.944;2022-09-12T18:28:50;16.30;95.20
10247;DHT22;5168;47.854;7.944;2022-09-12T18:31:18;16.20;91.30
10247;DHT22;5168;47.854;7.944;2022-09-12T18:33:45;16.20;99.90
10247;DHT22;5168;47.854;7.944;2022-09-12T18:36:12;16.20;93.50
10247;DHT22;5168;47.854;7.944;2022-09-12T18:38:38;16.60;99.90
10247;DHT22;5168;47.854;7.944;2022-09-12T18:41:30;15.50;99.90
10247;DHT22;5168;47.854;7.944;2022-09-12T18:43:58;16.10;99.90
10247;DHT22;5168;47.854;7.944;2022-09-12T18:46:26;15.50;99.90
10247;DHT22;5168;47.854;7.944;2022-09-12T18:51:21;15.80;91.00
10247;DHT22;5168;47.854;7.944;2022-09-12T18:53:52;15.90;99.90
10247;DHT22;5168;47.854;7.944;2022-09-12T18:56:19;15.60;98.40
10247;DHT22;5168;47.854;7.944;2022-09-12T18:58:51;15.30;99.90
10247;DHT22;5168;47.854;7.944;2022-09-12T19:01:20;15.70;99.90
10247;DHT22;5168;47.854;7.944;2022-09-12T19:06:15;15.60;91.20
10247;DHT22;5168;47.854;7.944;2022-09-12T19:11:07;15.60;91.40
10247;DHT22;5168;47.854;7.944;2022-09-12T19:13:38;15.50;91.30
10247;DHT22;5168;47.854;7.944;2022-09-12T19:16:06;14.90;99.90
10247;DHT22;5168;47.854;7.944;2022-09-12T19:25:59;15.40;92.20
10247;DHT22;5168;47.854;7.944;2022-09-12T19:28:26;15.60;93.70
10247;DHT22;5168;47.854;7.944;2022-09-12T19:33:19;14.80;99.90
10247;DHT22;5168;47.854;7.944;2022-09-12T19:35:45;15.20;99.90
10247;DHT22;5168;47.854;7.944;2022-09-12T19:38:11;15.10;99.90
10247;DHT22;5168;47.854;7.944;2022-09-12T19:40:37;14.70;99.10
10247;DHT22;5168;47.854;7.944;2022-09-12T19:43:04;15.00;96.50
10247;DHT22;5168;47.854;7.944;2022-09-12T19:45:30;15.30;99.70
10247;DHT22;5168;47.854;7.944;2022-09-12T19:50:21;15.50;98.30
10247;DHT22;5168;47.854;7.944;2022-09-12T19:55:13;15.10;98.70
10247;DHT22;5168;47.854;7.944;2022-09-12T19:57:39;15.30;98.70
10247;DHT22;5168;47.854;7.944;2022-09-12T20:00:05;15.20;91.80
10247;DHT22;5168;47.854;7.944;2022-09-12T20:02:31;15.60;98.90
10247;DHT22;5168;47.854;7.944;2022-09-12T20:04:57;15.10;98.40
10247;DHT22;5168;47.854;7.944;2022-09-12T20:07:22;15.50;93.30
10247;DHT22;5168;47.854;7.944;2022-09-12T20:12:14;14.80;99.90
10247;DHT22;5168;47.854;7.944;2022-09-12T20:14:40;15.30;99.90
10247;DHT22;5168;47.854;7.944;2022-09-12T20:17:06;15.10;99.80
10247;DHT22;5168;47.854;7.944;2022-09-12T20:19:32;14.70;99.60
10247;DHT22;5168;47.854;7.944;2022-09-12T20:24:24;15.10;99.90
10247;DHT22;5168;47.854;7.944;2022-09-12T20:26:50;15.50;99.20
10247;DHT22;5168;47.854;7.944;2022-09-12T20:31:42;15.50;92.60
10247;DHT22;5168;47.854;7.944;2022-09-12T20:34:13;14.80;95.80
10247;DHT22;5168;47.854;7.944;2022-09-12T20:39:05;14.90;99.90
10247;DHT22;5168;47.854;7.944;2022-09-12T20:41:33;14.40;99.90
10247;DHT22;5168;47.854;7.944;2022-09-12T20:43:59;15.30;99.90
10247;DHT22;5168;47.854;7.944;2022-09-12T20:46:26;14.70;99.90
10247;DHT22;5168;47.854;7.944;2022-09-12T20:51:19;14.80;99.90
10247;DHT22;5168;47.854;7.944;2022-09-12T20:53:46;15.50;99.30
10247;DHT22;5168;47.854;7.944;2022-09-12T20:56:11;15.50;99.90
10247;DHT22;5168;47.854;7.944;2022-09-12T20:58:39;15.20;99.90
10247;DHT22;5168;47.854;7.944;2022-09-12T21:01:09;15.00;99.90
10247;DHT22;5168;47.854;7.944;2022-09-12T21:03:39;14.80;95.00
10247;DHT22;5168;47.854;7.944;2022-09-12T21:06:06;14.90;99.90
10247;DHT22;5168;47.854;7.944;2022-09-12T21:08:33;13.80;94.80
10247;DHT22;5168;47.854;7.944;2022-09-12T21:13:24;14.50;99.90
10247;DHT22;5168;47.854;7.944;2022-09-12T21:16:04;14.80;96.30
10247;DHT22;5168;47.854;7.944;2022-09-12T21:18:30;14.50;99.90
10247;DHT22;5168;47.854;7.944;2022-09-12T21:23:23;14.70;97.10